ADDS METAR Data INFO
IDs: Format: Raw Decoded Include TAF

Data at: 1409 UTC 12 Dec 2017

KLVM 121353Z AUTO 26024G31KT 10SM CLR 07/M09 A3030 RMK AO2 PK WND 25034/1258 SLP272 T00671089 $
KLVM 121253Z AUTO 26022G30KT 10SM CLR 06/M08 A3031 RMK AO2 PK WND 25033/1242 SLP277 T00611083 $
KLVM 121153Z AUTO 28017G26KT 10SM CLR 07/M09 A3033 RMK AO2 PK WND 24034/1055 SLP280 T00721094 10083 21017 58007 $
KLVM 121053Z AUTO 27023G32KT 10SM CLR 08/M09 A3034 RMK AO2 PK WND 26034/1002 SLP279 T00831089
KLVM 120953Z AUTO 30023G30KT 10SM CLR 01/M08 A3036 RMK AO2 PK WND 29033/0935 SLP293 T00061083
KLVM 120853Z AUTO 28023KT 10SM CLR 06/M07 A3036 RMK AO2 PK WND 26034/0817 SLP283 T00611067 58011
KLVM 120753Z AUTO 28020G28KT 10SM CLR 07/M07 A3037 RMK AO2 PK WND 26029/0742 SLP288 T00721072
KLVM 120653Z AUTO 32019G24KT 10SM CLR 01/M07 A3040 RMK AO2 PK WND 28030/0635 SLP309 T00111072 400891017
KLVM 120553Z AUTO 27019KT 10SM CLR 06/M06 A3039 RMK AO2 SLP299 T00611061 10061 21006 56009
KLVM 120453Z AUTO 32016KT 10SM CLR 00/M07 A3041 RMK AO2 SLP323 T00001072
KLVM 120353Z AUTO 29016KT 10SM CLR 01/M07 A3041 RMK AO2 SLP327 T00061072
KLVM 120253Z AUTO 29015KT 10SM CLR 01/M07 A3042 RMK AO2 SLP332 T00111072 51005
KLVM 120153Z AUTO 28014KT 10SM CLR 02/M07 A3042 RMK AO2 SLP332 T00171072
KLVM 120053Z AUTO 28013KT 10SM CLR 02/M08 A3042 RMK AO2 SLP327 T00221078
KLVM 112353Z AUTO 29013KT 10SM CLR 04/M08 A3041 RMK AO2 SLP321 T00391083 10089 20033 55008
KLVM 112253Z AUTO 28013KT 10SM CLR 05/M08 A3041 RMK AO2 SLP320 T00501083
KLVM 112153Z AUTO 27013KT 10SM CLR 08/M09 A3041 RMK AO2 SLP309 T00831089
KLVM 112053Z AUTO 28012KT 10SM CLR 08/M09 A3043 RMK AO2 SLP310 T00831089 56012
KLVM 111953Z AUTO 28014KT 10SM CLR 08/M09 A3044 RMK AO2 SLP310 T00831089
KLVM 111853Z AUTO 28013KT 10SM CLR 08/M08 A3046 RMK AO2 SLP317 T00781083
KLVM 111753Z AUTO 29015KT 10SM CLR 07/M09 A3047 RMK AO2 SLP326 T00671089 10067 21017 50003
KLVM 111653Z AUTO 28015KT 10SM CLR 03/M08 A3047 RMK AO2 SLP333 T00331083
KLVM 111553Z AUTO 29016KT 10SM CLR 01/M09 A3046 RMK AO2 SLP331 T00111089
KLVM 111453Z AUTO 32015KT 10SM SCT060 M01/M09 A3046 RMK AO2 SLP342 T10061094 53003
KLVM 111353Z AUTO 32016KT 10SM CLR 00/M09 A3044 RMK AO2 SLP328 T00001094
KLVM 111253Z AUTO 31016KT 10SM CLR 01/M09 A3044 RMK AO2 SLP326 T00111089
KLVM 111153Z AUTO 29015KT 10SM CLR 00/M09 A3045 RMK AO2 SLP329 T00001089 10083 21017 50006
KLVM 111053Z AUTO 31015KT 10SM CLR M01/M10 A3045 RMK AO2 SLP332 T10111100
KLVM 110953Z AUTO 32016G24KT 10SM CLR 01/M09 A3043 RMK AO2 WSHFT 0926 SLP318 T00111094
KLVM 110946Z AUTO 33017KT 10SM CLR 01/M10 A3043 RMK AO2 WSHFT 0926 T00111100
KLVM 110853Z AUTO 24021KT 10SM CLR 06/M11 A3043 RMK AO2 PK WND 24028/0836 SLP304 T00611111 53002
KLVM 110753Z AUTO 24022G31KT 10SM CLR 07/M11 A3042 RMK AO2 PK WND 23031/0745 SLP300 T00671111
KLVM 110653Z AUTO 24023G28KT 10SM CLR 07/M11 A3042 RMK AO2 PK WND 27028/0602 SLP298 T00721111 401220022
KLVM 110553Z AUTO 26016KT 10SM CLR 07/M11 A3042 RMK AO2 PK WND 24027/0512 SLP304 T00671111 10100 20022 53005
KLVM 110453Z AUTO 24021G28KT 10SM CLR 07/M11 A3041 RMK AO2 PK WND 24028/0439 SLP299 T00671106
KLVM 110353Z AUTO 26020G26KT 10SM CLR 08/M12 A3041 RMK AO2 PK WND 24026/0347 SLP302 T00781117
KLVM 110253Z AUTO 29016G21KT 10SM CLR 04/M10 A3041 RMK AO2 WSHFT 0148 SLP309 T00391100 53008